createdAt,value
2019-02-01T00:01:07.736Z,97633.93
2019-02-01T00:04:10.667Z,97626.55
2019-02-01T00:07:13.587Z,97625.72
2019-02-01T00:10:16.980Z,97619.17
2019-02-01T00:13:20.864Z,97611.39
2019-02-01T00:16:26.210Z,97597.53
2019-02-01T00:19:29.715Z,97594.81
2019-02-01T00:22:32.653Z,97578.64
2019-02-01T00:25:36.149Z,97580.62
2019-02-01T00:28:39.516Z,97571.75
2019-02-01T00:31:42.823Z,97555.69
2019-02-01T00:34:47.416Z,97548.61
2019-02-01T00:37:50.728Z,97549.34
2019-02-01T00:40:53.659Z,97543.81
2019-02-01T00:43:57.163Z,97534.42
2019-02-01T00:47:00.399Z,97524.99
2019-02-01T00:50:04.860Z,97523.93
2019-02-01T00:53:08.114Z,97515.73
2019-02-01T00:56:12.196Z,97513.45
2019-02-01T00:59:15.420Z,97497.86
2019-02-01T01:02:18.751Z,97508.98
2019-02-01T01:05:21.957Z,97500.08
2019-02-01T01:08:25.371Z,97499.53
2019-02-01T01:11:28.308Z,97499.20
2019-02-01T01:14:31.576Z,97499.42
2019-02-01T01:17:34.811Z,97495.63
2019-02-01T01:20:37.923Z,97492.51
2019-02-01T01:23:40.862Z,97488.69
2019-02-01T01:26:43.763Z,97488.17
2019-02-01T01:29:46.691Z,97482.81
2019-02-01T01:32:50.434Z,97487.53
2019-02-01T01:35:53.766Z,97488.48
2019-02-01T01:38:58.915Z,97478.55
2019-02-01T01:42:02.129Z,97468.90
2019-02-01T01:45:13.131Z,97457.06
2019-02-01T01:48:16.447Z,97460.84
2019-02-01T01:51:19.372Z,97444.89
2019-02-01T01:54:22.997Z,97450.01
2019-02-01T01:57:25.914Z,97450.21
2019-02-01T02:00:31.729Z,97458.55
2019-02-01T02:03:34.640Z,97461.33
2019-02-01T02:06:37.590Z,97454.70
2019-02-01T02:09:40.848Z,97451.28
2019-02-01T02:12:44.059Z,97444.34
2019-02-01T02:15:49.039Z,97445.11
2019-02-01T02:18:52.280Z,97444.02
2019-02-01T02:21:55.834Z,97436.98
2019-02-01T02:24:59.069Z,97428.74
2019-02-01T02:28:02.323Z,97434.70
2019-02-01T02:31:06.088Z,97439.83
2019-02-01T02:34:11.695Z,97438.44
2019-02-01T02:37:14.935Z,97431.49
2019-02-01T02:40:20.360Z,97427.15
2019-02-01T02:43:23.581Z,97415.03
2019-02-01T02:46:26.850Z,97402.92
2019-02-01T02:49:30.456Z,97396.36
2019-02-01T02:52:33.469Z,97386.75
2019-02-01T02:55:37.173Z,97385.84
2019-02-01T02:58:40.812Z,97381.23
2019-02-01T03:01:44.285Z,97381.20
2019-02-01T03:04:48.267Z,97367.31
2019-02-01T03:07:51.591Z,97366.48
2019-02-01T03:10:54.979Z,97356.82
2019-02-01T03:13:58.255Z,97352.80
2019-02-01T03:17:01.176Z,97335.63
2019-02-01T03:20:05.690Z,97333.86
2019-02-01T03:23:08.623Z,97323.59
2019-02-01T03:26:12.620Z,97313.06
2019-02-01T03:29:16.100Z,97305.13
2019-02-01T03:32:19.359Z,97295.58
2019-02-01T03:35:22.936Z,97292.22
2019-02-01T03:38:25.925Z,97294.69
2019-02-01T03:41:29.277Z,97288.29
2019-02-01T03:44:32.874Z,97281.31
2019-02-01T03:47:36.458Z,97278.06
2019-02-01T03:50:39.781Z,97287.17
2019-02-01T03:53:43.621Z,97290.66
2019-02-01T03:56:46.854Z,97296.59
2019-02-01T03:59:50.144Z,97304.83
2019-02-01T04:02:53.288Z,97306.55
2019-02-01T04:05:57.779Z,97303.78
2019-02-01T04:09:01.071Z,97299.75
2019-02-01T04:12:05.695Z,97308.95
2019-02-01T04:15:11.522Z,97309.80
2019-02-01T04:18:14.596Z,97301.08
2019-02-01T04:21:17.857Z,97293.65
2019-02-01T04:24:20.759Z,97296.42
2019-02-01T04:27:24.320Z,97288.14
2019-02-01T04:30:27.356Z,97285.27
2019-02-01T04:33:30.979Z,97280.61
2019-02-01T04:36:36.505Z,97277.73
2019-02-01T04:39:39.486Z,97275.27
2019-02-01T04:42:43.079Z,97265.41
2019-02-01T04:45:46.659Z,97266.70
2019-02-01T04:48:49.608Z,97258.59
2019-02-01T04:51:53.095Z,97259.18
2019-02-01T04:54:56.007Z,97259.48
2019-02-01T04:57:59.967Z,97267.29
2019-02-01T05:01:03.203Z,97276.84
2019-02-01T05:04:06.143Z,97277.39
2019-02-01T05:07:09.143Z,97269.27
2019-02-01T05:10:14.642Z,97274.86
2019-02-01T05:13:17.673Z,97275.44
2019-02-01T05:16:20.924Z,97280.57
2019-02-01T05:19:23.867Z,97277.56
2019-02-01T05:22:27.261Z,97273.11
2019-02-01T05:25:30.188Z,97275.37
2019-02-01T05:28:33.166Z,97275.70
2019-02-01T05:31:36.711Z,97273.63
2019-02-01T05:34:40.003Z,97279.51
2019-02-01T05:37:43.925Z,97285.64
2019-02-01T05:40:46.888Z,97284.30
2019-02-01T05:43:50.505Z,97288.65
2019-02-01T05:46:53.419Z,97286.45
2019-02-01T05:49:56.634Z,97289.44
2019-02-01T05:53:00.467Z,97298.06
2019-02-01T05:56:03.725Z,97294.91
2019-02-01T05:59:07.142Z,97300.05
2019-02-01T06:02:10.080Z,97306.90
2019-02-01T06:05:14.121Z,97305.97
2019-02-01T06:08:17.078Z,97305.48
2019-02-01T06:11:20.369Z,97305.08
2019-02-01T06:14:23.739Z,97302.06
2019-02-01T06:17:26.988Z,97301.33
2019-02-01T06:20:40.002Z,97300.41
2019-02-01T06:23:36.725Z,97309.45
2019-02-01T06:26:40.636Z,97309.23
2019-02-01T06:29:43.555Z,97302.69
2019-02-01T06:32:47.121Z,97298.97
2019-02-01T06:35:50.331Z,97303.02
2019-02-01T06:38:53.751Z,97309.53
2019-02-01T06:41:57.063Z,97310.91
2019-02-01T06:44:59.990Z,97313.30
2019-02-01T06:48:04.376Z,97317.13
2019-02-01T06:51:26.887Z,97317.91
2019-02-01T06:54:30.491Z,97312.81
2019-02-01T06:57:34.420Z,97314.38
2019-02-01T07:00:41.530Z,97318.77
2019-02-01T07:04:02.448Z,97311.70
2019-02-01T07:07:27.719Z,97308.75
2019-02-01T07:10:46.529Z,97323.72
2019-02-01T07:14:15.196Z,97334.66
2019-02-01T07:17:55.738Z,97355.95
2019-02-01T07:21:21.646Z,97353.64
2019-02-01T07:24:37.801Z,97355.05
2019-02-01T07:27:51.353Z,97362.22
2019-02-01T07:31:05.400Z,97365.75
2019-02-01T07:34:10.012Z,97373.28
2019-02-01T07:37:13.267Z,97375.45
2019-02-01T07:40:16.573Z,97380.14
2019-02-01T07:43:19.770Z,97379.29
2019-02-01T07:46:22.781Z,97379.41
2019-02-01T07:49:29.103Z,97378.25
2019-02-01T07:52:32.030Z,97378.44
2019-02-01T07:55:35.306Z,97380.96
2019-02-01T07:58:38.277Z,97384.95
2019-02-01T08:01:41.246Z,97390.38
2019-02-01T08:04:44.524Z,97390.65
2019-02-01T08:07:47.720Z,97392.06
2019-02-01T08:10:50.743Z,97405.84
2019-02-01T08:13:54.110Z,97413.21
2019-02-01T08:16:57.016Z,97415.92
2019-02-01T08:20:00.287Z,97422.23
2019-02-01T08:23:03.190Z,97422.00
2019-02-01T08:26:06.583Z,97420.34
2019-02-01T08:29:09.520Z,97434.02
2019-02-01T08:32:12.749Z,97442.07
2019-02-01T08:35:17.947Z,97437.88
2019-02-01T08:38:20.851Z,97444.19
2019-02-01T08:41:23.890Z,97448.11
2019-02-01T08:44:26.789Z,97453.70
2019-02-01T08:47:29.812Z,97445.88
2019-02-01T08:50:32.741Z,97437.34
2019-02-01T08:53:35.974Z,97450.94
2019-02-01T08:56:38.916Z,97453.89
2019-02-01T08:59:42.157Z,97453.40
2019-02-01T09:02:45.080Z,97459.58
2019-02-01T09:05:48.035Z,97457.27
2019-02-01T09:08:50.942Z,97451.91
2019-02-01T09:11:53.871Z,97459.22
2019-02-01T09:14:56.774Z,97454.11
2019-02-01T09:18:00.671Z,97449.34
2019-02-01T09:21:04.066Z,97449.64
2019-02-01T09:24:07.001Z,97446.39
2019-02-01T09:27:09.925Z,97437.71
2019-02-01T09:30:16.310Z,97442.25
2019-02-01T09:33:20.680Z,97434.66
2019-02-01T09:36:23.609Z,97443.61
2019-02-01T09:39:27.110Z,97439.57
2019-02-01T09:42:30.008Z,97439.62
2019-02-01T09:45:33.318Z,97438.33
2019-02-01T09:48:36.245Z,97446.34
2019-02-01T09:51:39.776Z,97449.23
2019-02-01T09:54:42.995Z,97453.97
2019-02-01T09:57:46.148Z,97462.02
2019-02-01T10:00:49.890Z,97465.88
2019-02-01T10:03:53.115Z,97478.83
2019-02-01T10:06:56.139Z,97484.08
2019-02-01T10:09:59.379Z,97492.00
2019-02-01T10:13:02.550Z,97492.73
2019-02-01T10:16:05.984Z,97487.72
2019-02-01T10:19:08.893Z,97494.09
2019-02-01T10:22:13.578Z,97508.78
2019-02-01T10:25:18.288Z,97487.70
2019-02-01T10:28:21.479Z,97499.46
2019-02-01T10:31:25.452Z,97496.39
2019-02-01T10:34:28.688Z,97499.92
2019-02-01T10:37:32.350Z,97499.83
2019-02-01T10:40:35.284Z,97505.55
2019-02-01T10:43:38.527Z,97504.23
2019-02-01T10:46:41.771Z,97502.95
2019-02-01T10:49:45.082Z,97502.39
2019-02-01T10:52:48.488Z,97504.00
2019-02-01T10:55:51.758Z,97512.69
2019-02-01T10:58:55.052Z,97509.19
2019-02-01T11:01:57.982Z,97524.17
2019-02-01T11:05:00.914Z,97518.67
2019-02-01T11:08:04.825Z,97518.02
2019-02-01T11:11:08.360Z,97518.48
2019-02-01T11:14:11.296Z,97517.28
2019-02-01T11:17:14.208Z,97513.46
2019-02-01T11:20:19.373Z,97516.59
2019-02-01T11:23:22.272Z,97512.69
2019-02-01T11:26:25.597Z,97508.22
2019-02-01T11:29:28.500Z,97506.20
2019-02-01T11:32:31.715Z,97501.55
2019-02-01T11:35:34.644Z,97512.55
2019-02-01T11:38:37.910Z,97500.74
2019-02-01T11:41:41.072Z,97507.13
2019-02-01T11:44:46.637Z,97503.77
2019-02-01T11:47:48.931Z,97499.17
2019-02-01T11:50:51.861Z,97504.88
2019-02-01T11:53:55.504Z,97500.39
2019-02-01T11:56:58.696Z,97494.94
2019-02-01T12:00:02.136Z,97497.80
2019-02-01T12:03:05.740Z,97494.00
2019-02-01T12:06:08.970Z,97488.36
2019-02-01T12:09:12.182Z,97489.45
2019-02-01T12:12:15.204Z,97493.91
2019-02-01T12:15:18.532Z,97488.08
2019-02-01T12:18:22.280Z,97488.08
2019-02-01T12:21:25.201Z,97480.78
2019-02-01T12:24:28.131Z,97480.15
2019-02-01T12:27:31.344Z,97459.57
2019-02-01T12:30:34.742Z,97457.07
2019-02-01T12:33:38.163Z,97468.64
2019-02-01T12:36:41.121Z,97468.70
2019-02-01T12:39:44.415Z,97470.11
2019-02-01T12:42:50.292Z,97468.34
2019-02-01T12:45:52.881Z,97471.53
2019-02-01T12:48:55.794Z,97473.85
2019-02-01T12:51:58.733Z,97480.44
2019-02-01T12:55:02.413Z,97478.16
2019-02-01T12:58:05.645Z,97483.46
2019-02-01T13:01:08.678Z,97488.19
2019-02-01T13:04:11.643Z,97483.66
2019-02-01T13:07:14.600Z,97472.08
2019-02-01T13:10:17.952Z,97478.31
2019-02-01T13:13:21.037Z,97478.66
2019-02-01T13:16:24.003Z,97472.41
2019-02-01T13:19:27.482Z,97470.02
2019-02-01T13:22:30.433Z,97476.08
2019-02-01T13:25:33.347Z,97479.32
2019-02-01T13:28:36.952Z,97480.61
2019-02-01T13:31:40.172Z,97494.22
2019-02-01T13:34:43.550Z,97495.77
2019-02-01T13:37:46.757Z,97499.58
2019-02-01T13:40:50.035Z,97499.73
2019-02-01T13:43:52.956Z,97501.58
2019-02-01T13:46:56.190Z,97496.77
2019-02-01T13:49:59.143Z,97495.14
2019-02-01T13:53:02.507Z,97491.77
2019-02-01T13:56:05.700Z,97495.91
2019-02-01T13:59:10.755Z,97498.31
2019-02-01T14:02:13.689Z,97496.11
2019-02-01T14:05:16.651Z,97504.82
2019-02-01T14:08:19.894Z,97513.94
2019-02-01T14:11:22.890Z,97504.05
2019-02-01T14:14:25.812Z,97510.51
2019-02-01T14:17:29.054Z,97513.63
2019-02-01T14:20:31.981Z,97521.98
2019-02-01T14:23:46.821Z,97518.19
2019-02-01T14:26:45.841Z,97512.50
2019-02-01T14:29:49.011Z,97517.86
2019-02-01T14:32:51.933Z,97515.44
2019-02-01T14:35:56.116Z,97519.67
2019-02-01T14:39:01.065Z,97515.84
2019-02-01T14:42:05.847Z,97518.14
2019-02-01T14:45:13.462Z,97521.30
2019-02-01T14:48:19.328Z,97518.59
2019-02-01T14:51:22.656Z,97515.07
2019-02-01T14:54:25.705Z,97511.92
2019-02-01T14:57:28.727Z,97504.43
2019-02-01T15:00:31.936Z,97502.67
2019-02-01T15:03:35.001Z,97502.67
2019-02-01T15:06:37.926Z,97500.80
2019-02-01T15:09:41.449Z,97506.70
2019-02-01T15:12:45.190Z,97508.72
2019-02-01T15:15:48.423Z,97508.31
2019-02-01T15:18:51.379Z,97508.44
2019-02-01T15:21:54.362Z,97514.84
2019-02-01T15:24:57.537Z,97521.87
2019-02-01T15:28:00.525Z,97516.87
2019-02-01T15:31:03.825Z,97520.06
2019-02-01T15:34:07.339Z,97515.45
2019-02-01T15:37:10.284Z,97516.87
2019-02-01T15:40:26.024Z,97520.92
2019-02-01T15:43:29.485Z,97511.89
2019-02-01T15:46:33.142Z,97500.06
2019-02-01T15:49:36.804Z,97495.00
2019-02-01T15:52:40.016Z,97500.95
2019-02-01T15:55:42.919Z,97502.95
2019-02-01T15:58:46.599Z,97504.72
2019-02-01T16:01:49.847Z,97497.80
2019-02-01T16:04:52.710Z,97497.48
2019-02-01T16:07:55.667Z,97506.92
2019-02-01T16:10:58.572Z,97503.91
2019-02-01T16:14:01.505Z,97509.44
2019-02-01T16:17:04.610Z,97520.36
2019-02-01T16:20:20.513Z,97528.52
2019-02-01T16:23:23.513Z,97533.07
2019-02-01T16:26:26.532Z,97540.19
2019-02-01T16:29:29.712Z,97541.39
2019-02-01T16:32:32.708Z,97538.92
2019-02-01T16:35:36.293Z,97531.47
2019-02-01T16:38:39.592Z,97532.94
2019-02-01T16:41:42.520Z,97525.39
2019-02-01T16:44:46.778Z,97522.00
2019-02-01T16:47:49.826Z,97523.26
2019-02-01T16:50:53.615Z,97521.73
2019-02-01T16:53:56.785Z,97518.85
2019-02-01T16:57:00.319Z,97532.44
2019-02-01T17:00:07.715Z,97527.98
2019-02-01T17:03:11.522Z,97528.94
2019-02-01T17:06:14.439Z,97539.75
2019-02-01T17:09:17.371Z,97533.51
2019-02-01T17:12:20.377Z,97539.41
2019-02-01T17:15:24.073Z,97541.30
2019-02-01T17:18:27.678Z,97555.98
2019-02-01T17:21:30.872Z,97558.89
2019-02-01T17:24:34.180Z,97572.20
2019-02-01T17:27:37.400Z,97573.50
2019-02-01T17:30:43.914Z,97577.66
2019-02-01T17:33:47.136Z,97567.88
2019-02-01T17:36:50.036Z,97568.97
2019-02-01T17:39:53.287Z,97554.95
2019-02-01T17:42:56.192Z,97538.21
2019-02-01T17:45:59.491Z,97526.11
2019-02-01T17:49:03.203Z,97516.44
2019-02-01T17:52:06.485Z,97509.58
2019-02-01T17:55:10.282Z,97514.34
2019-02-01T17:58:13.191Z,97524.46
2019-02-01T18:01:16.183Z,97517.16
2019-02-01T18:04:19.098Z,97506.11
2019-02-01T18:07:22.431Z,97507.45
2019-02-01T18:10:26.048Z,97520.96
2019-02-01T18:13:28.951Z,97527.20
2019-02-01T18:16:32.663Z,97532.55
2019-02-01T18:19:36.870Z,97544.38
2019-02-01T18:22:41.796Z,97553.42
2019-02-01T18:25:47.267Z,97551.06
2019-02-01T18:28:52.460Z,97559.33
2019-02-01T18:31:55.950Z,97557.78
2019-02-01T18:34:58.817Z,97559.94
2019-02-01T18:38:04.503Z,97567.34
2019-02-01T18:41:08.546Z,97572.52
2019-02-01T18:44:11.432Z,97569.13
2019-02-01T18:47:14.322Z,97580.19
2019-02-01T18:50:20.191Z,97582.25
2019-02-01T18:53:23.068Z,97593.19
2019-02-01T18:56:25.928Z,97598.46
2019-02-01T18:59:29.506Z,97603.16
2019-02-01T19:02:32.363Z,97601.03
2019-02-01T19:05:35.643Z,97612.95
2019-02-01T19:08:39.294Z,97613.49
2019-02-01T19:11:43.194Z,97618.09
2019-02-01T19:14:59.203Z,97614.19
2019-02-01T19:18:02.063Z,97624.36
2019-02-01T19:21:04.950Z,97616.70
2019-02-01T19:24:07.826Z,97613.02
2019-02-01T19:27:11.972Z,97618.45
2019-02-01T19:30:29.357Z,97611.30
2019-02-01T19:33:32.562Z,97599.98
2019-02-01T19:36:35.442Z,97594.94
2019-02-01T19:39:38.302Z,97597.95
2019-02-01T19:42:41.572Z,97591.31
2019-02-01T19:45:44.562Z,97588.55
2019-02-01T19:48:47.556Z,97593.50
2019-02-01T19:51:50.898Z,97599.13
2019-02-01T19:54:54.425Z,97595.56
2019-02-01T19:57:57.564Z,97599.48
2019-02-01T20:01:00.425Z,97597.80
2019-02-01T20:04:05.876Z,97592.64
2019-02-01T20:07:08.823Z,97598.27
2019-02-01T20:10:19.273Z,97600.02
2019-02-01T20:13:22.170Z,97600.56
2019-02-01T20:16:25.117Z,97610.31
2019-02-01T20:19:28.407Z,97610.53
2019-02-01T20:22:31.715Z,97614.09
2019-02-01T20:25:34.652Z,97622.89
2019-02-01T20:28:39.954Z,97624.58
2019-02-01T20:31:43.235Z,97626.80
2019-02-01T20:34:46.164Z,97620.52
2019-02-01T20:37:49.398Z,97616.83
2019-02-01T20:40:54.722Z,97617.49
2019-02-01T20:43:59.743Z,97614.73
2019-02-01T20:47:02.974Z,97617.27
2019-02-01T20:50:10.785Z,97618.54
2019-02-01T20:53:15.752Z,97619.88
2019-02-01T20:56:20.350Z,97615.11
2019-02-01T20:59:23.352Z,97618.26
2019-02-01T21:02:26.491Z,97617.20
2019-02-01T21:05:30.832Z,97612.88
2019-02-01T21:08:34.898Z,97620.12
2019-02-01T21:11:37.778Z,97618.41
2019-02-01T21:14:41.398Z,97617.08
2019-02-01T21:17:44.713Z,97607.27
2019-02-01T21:20:47.577Z,97607.00
2019-02-01T21:23:50.462Z,97608.09
2019-02-01T21:26:53.610Z,97626.23
2019-02-01T21:29:56.830Z,97627.79
2019-02-01T21:32:59.829Z,97633.64
2019-02-01T21:36:03.036Z,97638.08
2019-02-01T21:39:07.608Z,97638.65
2019-02-01T21:42:12.718Z,97637.76
2019-02-01T21:45:16.869Z,97633.77
2019-02-01T21:48:20.155Z,97627.50
2019-02-01T21:51:23.146Z,97626.73
2019-02-01T21:54:27.809Z,97635.52
2019-02-01T21:57:30.681Z,97628.39
2019-02-01T22:00:33.674Z,97628.93
2019-02-01T22:03:36.583Z,97629.97
2019-02-01T22:06:39.458Z,97633.31
2019-02-01T22:09:42.541Z,97627.95
2019-02-01T22:12:45.418Z,97634.78
2019-02-01T22:15:48.335Z,97623.72
2019-02-01T22:18:51.553Z,97629.53
2019-02-01T22:21:54.460Z,97635.23
2019-02-01T22:24:57.725Z,97641.36
2019-02-01T22:28:01.001Z,97637.92
2019-02-01T22:31:04.248Z,97643.30
2019-02-01T22:34:07.217Z,97649.20
2019-02-01T22:37:10.099Z,97652.16
2019-02-01T22:40:15.753Z,97655.57
2019-02-01T22:43:18.754Z,97666.63
2019-02-01T22:46:21.760Z,97669.06
2019-02-01T22:49:24.761Z,97672.85
2019-02-01T22:52:27.658Z,97678.16
2019-02-01T22:55:30.903Z,97679.81
2019-02-01T22:58:33.800Z,97674.54
2019-02-01T23:01:49.030Z,97676.61
2019-02-01T23:04:55.155Z,97675.30
2019-02-01T23:07:58.048Z,97684.39
2019-02-01T23:11:01.206Z,97691.41
2019-02-01T23:14:05.396Z,97702.22
2019-02-01T23:17:08.295Z,97698.11
2019-02-01T23:20:12.505Z,97702.27
2019-02-01T23:23:16.045Z,97706.37
2019-02-01T23:26:19.622Z,97710.72
2019-02-01T23:29:22.511Z,97701.02
2019-02-01T23:32:25.481Z,97693.82
2019-02-01T23:35:28.725Z,97694.66
2019-02-01T23:38:32.193Z,97692.41
2019-02-01T23:41:35.190Z,97683.09
2019-02-01T23:44:38.654Z,97679.66
2019-02-01T23:47:42.649Z,97684.97
2019-02-01T23:50:45.877Z,97677.05
2019-02-01T23:53:49.194Z,97676.58
2019-02-01T23:56:52.382Z,97679.08
2019-02-01T23:59:55.568Z,97676.44
